Time;durP1;ratioP1;P1;durP2;ratioP2;P2;SDS_P1;SDS_P2;PMS_P1;PMS_P2;Temp;Humidity;BMP_temperature;BMP_pressure;BME280_temperature;BME280_humidity;BME280_pressure;Samples;Min_cycle;Max_cycle;Signal;HPM_P1;HPM_P2
2021/11/07 00:11:40;;;;;;;2.53;2.17;;;8.40;99.90;;;;;;4993399;28;20176;-67
2021/11/07 00:14:07;;;;;;;4.00;3.50;;;8.40;99.90;;;;;;4992710;28;20547;-67
2021/11/07 00:16:36;;;;;;;3.73;2.40;;;8.40;99.90;;;;;;4993410;28;20401;-68
2021/11/07 00:19:10;;;;;;;2.50;2.40;;;8.40;99.90;;;;;;4991814;28;20449;-67
2021/11/07 00:24:19;;;;;;;2.27;2.07;;;8.40;99.90;;;;;;4992831;28;20991;-67
2021/11/07 00:29:15;;;;;;;3.40;2.00;;;8.40;99.90;;;;;;4991927;28;20420;-67
2021/11/07 00:36:37;;;;;;;3.00;2.70;;;8.40;99.90;;;;;;4993191;28;20211;-67
2021/11/07 00:41:39;;;;;;;4.33;2.50;;;8.40;99.90;;;;;;4992555;28;20417;-67
2021/11/07 00:44:09;;;;;;;9.30;3.03;;;8.30;99.90;;;;;;4992389;28;20510;-67
2021/11/07 00:46:50;;;;;;;2.10;1.90;;;8.30;99.90;;;;;;4992695;28;20416;-67
2021/11/07 00:49:33;;;;;;;4.67;2.70;;;8.30;99.90;;;;;;4992694;28;20416;-67
2021/11/07 00:54:32;;;;;;;2.50;2.03;;;8.40;99.90;;;;;;4992343;28;20463;-67
2021/11/07 00:57:03;;;;;;;3.03;2.40;;;8.40;99.90;;;;;;4992621;28;20853;-67
2021/11/07 01:02:21;;;;;;;7.83;6.30;;;8.30;99.90;;;;;;4992786;28;20452;-68
2021/11/07 01:04:48;;;;;;;4.23;2.87;;;8.30;99.90;;;;;;4989869;28;20233;-68
2021/11/07 01:07:16;;;;;;;6.30;4.13;;;8.30;99.90;;;;;;4992549;28;20913;-67
2021/11/07 01:09:42;;;;;;;8.00;4.70;;;8.30;99.90;;;;;;4992357;28;20451;-67
2021/11/07 01:12:10;;;;;;;3.13;2.90;;;8.20;99.90;;;;;;4992553;28;20912;-67
2021/11/07 01:14:36;;;;;;;4.83;2.87;;;8.20;99.90;;;;;;4991920;28;20600;-67
2021/11/07 01:17:02;;;;;;;3.67;3.10;;;8.10;99.90;;;;;;4992443;28;20908;-67
2021/11/07 01:19:28;;;;;;;4.80;2.93;;;8.10;99.90;;;;;;4992394;28;20181;-67
2021/11/07 01:21:53;;;;;;;3.77;3.47;;;8.00;99.90;;;;;;4992168;28;20174;-68
2021/11/07 01:24:28;;;;;;;2.50;2.30;;;7.90;99.90;;;;;;4991893;28;20287;-67
2021/11/07 01:27:06;;;;;;;3.47;3.20;;;7.90;99.90;;;;;;4992318;28;20177;-67
2021/11/07 01:29:37;;;;;;;4.00;3.60;;;7.90;99.90;;;;;;4992332;28;20477;-67
2021/11/07 01:32:03;;;;;;;5.47;3.40;;;7.90;99.90;;;;;;4992411;28;20412;-67
2021/11/07 01:34:48;;;;;;;3.37;3.10;;;7.90;99.90;;;;;;4991863;28;20545;-67
2021/11/07 01:37:22;;;;;;;2.90;2.70;;;7.90;99.90;;;;;;4992347;28;21063;-67
2021/11/07 01:39:56;;;;;;;2.73;2.60;;;7.80;99.90;;;;;;4992187;28;20419;-67
2021/11/07 01:42:33;;;;;;;3.30;3.00;;;7.70;99.90;;;;;;4992203;28;20419;-67
2021/11/07 01:45:03;;;;;;;6.40;3.10;;;7.80;99.90;;;;;;4991880;28;20435;-67
2021/11/07 01:47:30;;;;;;;4.20;3.07;;;7.70;99.90;;;;;;4994241;28;20407;-67
2021/11/07 01:49:56;;;;;;;7.33;3.10;;;7.70;99.90;;;;;;4995857;28;20489;-67
2021/11/07 01:52:25;;;;;;;3.33;3.13;;;7.70;99.90;;;;;;4995939;28;20416;-67
2021/11/07 01:57:26;;;;;;;2.70;2.60;;;7.80;99.90;;;;;;4995858;28;20417;-67
2021/11/07 01:59:55;;;;;;;5.10;4.60;;;7.80;99.90;;;;;;4995685;28;20424;-66
2021/11/07 02:02:23;;;;;;;4.80;3.53;;;7.70;99.90;;;;;;4995763;28;20492;-67
2021/11/07 02:04:49;;;;;;;3.97;3.77;;;7.60;99.90;;;;;;4995182;28;20567;-67
2021/11/07 02:07:15;;;;;;;3.27;2.97;;;7.60;99.90;;;;;;4995711;28;20412;-67
2021/11/07 02:09:41;;;;;;;4.50;4.13;;;7.60;99.90;;;;;;4995501;28;20444;-67
2021/11/07 02:12:08;;;;;;;2.63;2.30;;;7.70;99.90;;;;;;4995529;28;20236;-67
2021/11/07 02:14:35;;;;;;;2.83;2.73;;;7.80;99.90;;;;;;4994899;28;20847;-67
2021/11/07 02:17:00;;;;;;;3.27;3.07;;;7.70;99.90;;;;;;4995703;28;20511;-67
2021/11/07 02:19:27;;;;;;;3.63;3.33;;;7.70;99.90;;;;;;4995372;28;20497;-67
2021/11/07 02:21:53;;;;;;;2.27;2.17;;;7.80;99.90;;;;;;4995520;28;20227;-67
2021/11/07 02:24:19;;;;;;;3.40;3.20;;;7.70;99.90;;;;;;4994882;28;20434;-67
2021/11/07 02:26:55;;;;;;;3.30;3.10;;;7.80;99.90;;;;;;4995228;28;20174;-67
2021/11/07 02:29:23;;;;;;;3.33;3.13;;;7.70;99.90;;;;;;4993987;28;20791;-68
2021/11/07 02:31:50;;;;;;;2.50;2.40;;;7.70;99.90;;;;;;4995250;28;20446;-67
2021/11/07 02:34:16;;;;;;;2.90;2.70;;;7.70;99.90;;;;;;4993093;28;20514;-68
2021/11/07 02:36:43;;;;;;;3.17;2.97;;;7.70;99.90;;;;;;4995254;28;20498;-68
2021/11/07 02:39:10;;;;;;;2.80;2.70;;;7.70;99.90;;;;;;4994805;28;20431;-68
2021/11/07 02:41:35;;;;;;;3.10;2.90;;;7.70;99.90;;;;;;4993689;28;20439;-67
2021/11/07 02:44:01;;;;;;;2.87;2.73;;;7.80;99.90;;;;;;4995141;28;20435;-68
2021/11/07 02:46:27;;;;;;;7.50;6.53;;;7.80;99.90;;;;;;4994960;28;20181;-67
2021/11/07 02:48:56;;;;;;;2.27;2.17;;;7.80;99.90;;;;;;4994847;28;20415;-67
2021/11/07 02:51:30;;;;;;;2.70;2.50;;;7.80;99.90;;;;;;4994712;28;20276;-67
2021/11/07 02:53:56;;;;;;;4.80;4.40;;;7.80;99.90;;;;;;4994295;28;20469;-67
2021/11/07 02:56:22;;;;;;;2.80;2.70;;;7.80;99.90;;;;;;4994746;28;20412;-67
2021/11/07 02:58:48;;;;;;;3.50;3.30;;;7.80;99.90;;;;;;4994473;28;20669;-67
2021/11/07 03:01:18;;;;;;;2.33;2.23;;;7.80;99.90;;;;;;4994652;28;20455;-67
2021/11/07 03:03:43;;;;;;;2.07;1.97;;;7.90;99.90;;;;;;4994134;28;20436;-67
2021/11/07 03:06:09;;;;;;;2.77;2.03;;;7.90;99.90;;;;;;4994545;28;20412;-67
2021/11/07 03:08:40;;;;;;;2.23;2.13;;;7.90;99.90;;;;;;4994492;28;20173;-67
2021/11/07 03:11:06;;;;;;;2.40;2.30;;;7.90;99.90;;;;;;4994508;28;20173;-67
2021/11/07 03:13:32;;;;;;;2.57;2.47;;;7.90;99.90;;;;;;4994015;28;20915;-67
2021/11/07 03:16:08;;;;;;;1.97;1.80;;;7.90;99.90;;;;;;4994344;28;20475;-67
2021/11/07 03:18:35;;;;;;;2.07;1.97;;;7.90;99.90;;;;;;4994401;28;20661;-67
2021/11/07 03:21:03;;;;;;;2.23;2.00;;;8.00;99.90;;;;;;4994238;28;20515;-68
2021/11/07 03:23:29;;;;;;;1.80;1.70;;;8.00;99.90;;;;;;4993784;28;20420;-67
2021/11/07 03:26:05;;;;;;;4.53;3.47;;;8.00;99.90;;;;;;4994220;28;20416;-67
2021/11/07 03:28:32;;;;;;;1.80;1.70;;;8.00;99.90;;;;;;4994199;28;20538;-68
2021/11/07 03:31:08;;;;;;;3.00;1.97;;;8.00;99.90;;;;;;4994045;28;20413;-67
2021/11/07 03:33:58;;;;;;;2.40;2.20;;;8.00;99.90;;;;;;4993398;28;20414;-68
2021/11/07 03:36:21;;;;;;;2.47;2.37;;;8.00;99.90;;;;;;4993778;28;20765;-68
2021/11/07 03:38:50;;;;;;;1.97;1.87;;;8.00;99.90;;;;;;4993789;28;20416;-68
2021/11/07 03:41:17;;;;;;;7.17;6.20;;;8.00;99.90;;;;;;4993889;28;20421;-67
2021/11/07 03:43:43;;;;;;;3.30;3.00;;;8.00;99.90;;;;;;4993292;28;20437;-67
2021/11/07 03:46:09;;;;;;;3.93;2.07;;;7.90;99.90;;;;;;4993871;28;20918;-68
2021/11/07 03:48:35;;;;;;;3.70;3.40;;;8.00;99.90;;;;;;4993774;28;20413;-68
2021/11/07 03:51:01;;;;;;;2.40;2.30;;;7.90;99.90;;;;;;4993664;28;20928;-67
2021/11/07 03:53:27;;;;;;;3.03;2.83;;;7.90;99.90;;;;;;4993236;28;20170;-68
2021/11/07 03:55:54;;;;;;;3.57;3.20;;;7.90;99.90;;;;;;4993631;28;21085;-68
2021/11/07 03:58:20;;;;;;;4.47;4.17;;;7.90;99.90;;;;;;4993530;28;20433;-68
2021/11/07 04:00:46;;;;;;;3.53;3.33;;;7.90;99.90;;;;;;4993506;28;20498;-67
2021/11/07 04:03:12;;;;;;;3.20;3.00;;;7.90;99.90;;;;;;4993150;28;20499;-68
2021/11/07 04:05:38;;;;;;;4.73;4.37;;;8.00;99.90;;;;;;4993308;28;20287;-68
2021/11/07 04:08:04;;;;;;;3.67;3.47;;;7.90;99.90;;;;;;4993440;28;20859;-68
2021/11/07 04:10:31;;;;;;;3.37;3.07;;;8.00;99.90;;;;;;4992761;28;20413;-68
2021/11/07 04:12:57;;;;;;;3.27;3.10;;;8.00;99.90;;;;;;4992900;28;20463;-67
2021/11/07 04:15:23;;;;;;;4.03;3.63;;;8.00;99.90;;;;;;4993122;28;20460;-68
2021/11/07 04:17:49;;;;;;;4.07;3.67;;;8.00;99.90;;;;;;4993281;28;20417;-67
2021/11/07 04:20:15;;;;;;;3.63;3.43;;;8.00;99.90;;;;;;4993135;28;20466;-67
2021/11/07 04:22:40;;;;;;;3.83;3.53;;;8.00;99.90;;;;;;4992916;28;20169;-67
2021/11/07 04:25:07;;;;;;;3.53;3.33;;;7.90;99.90;;;;;;4992977;28;20467;-68
2021/11/07 04:27:33;;;;;;;3.97;3.77;;;7.90;99.90;;;;;;4993075;28;20498;-67
2021/11/07 04:29:59;;;;;;;3.70;3.50;;;8.00;99.90;;;;;;4992972;28;20409;-67
2021/11/07 04:32:25;;;;;;;4.83;4.47;;;8.00;99.90;;;;;;4992952;28;20415;-67
2021/11/07 04:34:50;;;;;;;3.93;3.70;;;8.10;99.90;;;;;;4992503;28;20455;-67
2021/11/07 04:37:18;;;;;;;4.20;3.80;;;8.00;99.90;;;;;;4992964;28;20235;-68
2021/11/07 04:39:44;;;;;;;3.70;3.43;;;8.00;99.90;;;;;;4992801;28;20165;-68
2021/11/07 04:42:11;;;;;;;4.47;4.10;;;8.00;99.90;;;;;;4992804;28;21084;-67
2021/11/07 04:44:36;;;;;;;4.50;4.20;;;8.00;99.90;;;;;;4992471;28;20436;-67
2021/11/07 04:47:02;;;;;;;4.70;3.83;;;8.00;99.90;;;;;;4992967;28;20427;-67
2021/11/07 04:49:28;;;;;;;4.30;4.00;;;8.00;99.90;;;;;;4992702;28;20173;-68
2021/11/07 04:51:54;;;;;;;4.97;4.67;;;8.00;99.90;;;;;;4992681;28;20932;-68
2021/11/07 04:54:19;;;;;;;5.30;5.00;;;8.00;99.90;;;;;;4992380;28;20496;-68
2021/11/07 04:56:46;;;;;;;3.73;3.53;;;8.10;99.90;;;;;;4992621;28;20736;-68
2021/11/07 04:59:11;;;;;;;4.50;4.10;;;8.10;99.90;;;;;;4992575;28;20184;-68
2021/11/07 05:01:37;;;;;;;4.27;3.97;;;8.10;99.90;;;;;;4992679;28;20764;-68
2021/11/07 05:04:04;;;;;;;5.20;4.80;;;8.10;99.90;;;;;;4992083;28;20205;-68
2021/11/07 05:06:30;;;;;;;5.13;4.70;;;8.10;99.90;;;;;;4992499;28;20166;-67
2021/11/07 05:08:55;;;;;;;4.37;3.97;;;8.00;99.90;;;;;;4992551;28;20427;-68
2021/11/07 05:11:21;;;;;;;4.00;3.70;;;8.00;99.90;;;;;;4992429;28;20169;-68
2021/11/07 05:13:46;;;;;;;3.83;3.60;;;8.10;99.90;;;;;;4991958;28;20203;-67
2021/11/07 05:16:12;;;;;;;4.43;4.13;;;8.00;99.90;;;;;;4992478;28;20205;-68
2021/11/07 05:18:39;;;;;;;4.10;3.80;;;8.10;99.90;;;;;;4991125;28;20174;-67
2021/11/07 05:21:05;;;;;;;4.27;3.97;;;8.00;99.90;;;;;;4992348;28;20420;-68
2021/11/07 05:23:30;;;;;;;3.20;3.00;;;8.00;99.90;;;;;;4995925;28;20421;-68
2021/11/07 05:25:57;;;;;;;3.47;3.27;;;8.00;99.90;;;;;;4996409;28;20173;-68
2021/11/07 05:28:23;;;;;;;2.83;2.63;;;8.10;99.90;;;;;;4996389;28;20513;-68
2021/11/07 05:30:50;;;;;;;3.90;3.60;;;8.10;99.90;;;;;;4996241;28;20401;-68
2021/11/07 05:33:17;;;;;;;3.33;3.13;;;8.10;99.90;;;;;;4995929;28;20403;-67
2021/11/07 05:35:43;;;;;;;3.20;3.00;;;8.10;99.90;;;;;;4996147;28;20554;-68
2021/11/07 05:38:08;;;;;;;2.73;2.63;;;8.20;99.90;;;;;;4996155;28;20448;-68
2021/11/07 05:40:34;;;;;;;2.83;2.67;;;8.20;99.90;;;;;;4996102;28;20405;-68
2021/11/07 05:43:00;;;;;;;3.57;3.30;;;8.20;99.90;;;;;;4995935;28;20842;-68
2021/11/07 05:45:25;;;;;;;3.90;3.70;;;8.20;99.90;;;;;;4995907;28;20201;-67
2021/11/07 05:47:51;;;;;;;2.83;2.73;;;8.20;99.90;;;;;;4996043;28;20177;-67
2021/11/07 05:50:19;;;;;;;4.40;4.10;;;8.20;99.90;;;;;;4996039;28;20397;-68
2021/11/07 05:52:44;;;;;;;3.30;3.10;;;8.20;99.90;;;;;;4995685;28;20178;-68
2021/11/07 05:55:11;;;;;;;3.30;3.10;;;8.20;99.90;;;;;;4995700;28;20456;-68
2021/11/07 05:57:38;;;;;;;3.17;3.03;;;8.20;99.90;;;;;;4995896;28;20166;-68
2021/11/07 06:00:05;;;;;;;4.73;4.43;;;8.30;99.90;;;;;;4995814;28;20407;-67
2021/11/07 06:02:30;;;;;;;4.30;3.93;;;8.20;99.90;;;;;;4995783;28;20776;-68
2021/11/07 06:04:56;;;;;;;5.00;4.60;;;8.20;99.90;;;;;;4995164;28;20463;-68
2021/11/07 06:07:21;;;;;;;5.23;4.73;;;8.20;99.90;;;;;;4995683;28;20181;-68
2021/11/07 06:09:47;;;;;;;6.40;4.77;;;8.20;99.90;;;;;;4995553;28;20541;-68
2021/11/07 06:12:12;;;;;;;5.00;4.60;;;8.20;99.90;;;;;;4995669;28;20174;-67
2021/11/07 06:14:38;;;;;;;4.40;4.03;;;8.20;99.90;;;;;;4995004;28;20204;-68
2021/11/07 06:17:05;;;;;;;5.60;5.10;;;8.10;99.90;;;;;;4995540;28;20672;-68
2021/11/07 06:19:31;;;;;;;5.03;4.63;;;8.10;99.90;;;;;;4995414;28;20259;-68
2021/11/07 06:21:57;;;;;;;5.77;5.27;;;8.10;99.90;;;;;;4995433;28;20436;-68
2021/11/07 06:24:27;;;;;;;5.23;4.83;;;8.10;99.90;;;;;;4994830;28;20201;-68
2021/11/07 06:26:55;;;;;;;4.70;4.40;;;8.10;99.90;;;;;;4995354;28;20174;-68
2021/11/07 06:29:21;;;;;;;4.77;4.40;;;8.10;99.90;;;;;;4995197;28;20883;-68
2021/11/07 06:31:50;;;;;;;5.17;4.87;;;8.20;99.90;;;;;;4995231;28;20437;-68
2021/11/07 06:34:16;;;;;;;5.10;4.70;;;8.20;99.90;;;;;;4994229;28;20456;-67
2021/11/07 06:36:42;;;;;;;5.53;5.03;;;8.20;99.90;;;;;;4995101;28;20412;-68
2021/11/07 06:39:07;;;;;;;7.33;5.63;;;8.20;99.90;;;;;;4995020;28;20184;-68
2021/11/07 06:41:33;;;;;;;4.83;4.50;;;8.20;99.90;;;;;;4995099;28;20403;-68
2021/11/07 06:43:59;;;;;;;6.40;5.40;;;8.30;99.90;;;;;;4994573;28;20810;-68
2021/11/07 06:46:25;;;;;;;6.13;5.63;;;8.30;99.90;;;;;;4994977;28;20173;-68
2021/11/07 06:48:50;;;;;;;5.87;5.37;;;8.30;99.90;;;;;;4994867;28;20546;-68
2021/11/07 06:51:17;;;;;;;5.70;5.30;;;8.30;99.90;;;;;;4994831;28;20476;-68
2021/11/07 06:53:43;;;;;;;5.60;5.20;;;8.30;99.90;;;;;;4994402;28;20194;-68
2021/11/07 06:56:09;;;;;;;6.47;5.93;;;8.30;99.90;;;;;;4994815;28;21052;-68
2021/11/07 06:58:35;;;;;;;7.07;6.57;;;8.30;99.90;;;;;;4994997;28;20426;-68
2021/11/07 07:01:01;;;;;;;6.53;6.03;;;8.30;99.90;;;;;;4994607;28;20634;-68
2021/11/07 07:03:27;;;;;;;6.60;6.00;;;8.30;99.90;;;;;;4994130;28;20417;-68
2021/11/07 07:05:53;;;;;;;6.40;5.80;;;8.30;99.90;;;;;;4994553;28;20181;-68
2021/11/07 07:08:22;;;;;;;11.60;6.07;;;8.30;99.90;;;;;;4993316;28;20182;-68
2021/11/07 07:10:56;;;;;;;8.67;7.77;;;8.30;99.90;;;;;;4994431;28;20409;-68
2021/11/07 07:13:48;;;;;;;6.37;5.77;;;8.30;99.90;;;;;;4994129;28;20412;-68
2021/11/07 07:16:24;;;;;;;7.70;7.00;;;8.40;99.90;;;;;;4994058;28;20427;-68
2021/11/07 07:21:42;;;;;;;9.30;6.20;;;8.30;99.90;;;;;;4994432;28;20408;-68
2021/11/07 07:24:25;;;;;;;6.67;6.07;;;8.30;99.90;;;;;;4993912;28;20551;-68
2021/11/07 07:27:12;;;;;;;6.10;5.60;;;8.40;99.90;;;;;;4994255;28;20393;-68
2021/11/07 07:29:52;;;;;;;6.97;6.33;;;8.40;99.90;;;;;;4994148;28;20897;-68
2021/11/07 07:35:04;;;;;;;7.80;5.50;;;8.40;99.90;;;;;;4993817;28;21026;-68
2021/11/07 07:37:29;;;;;;;10.00;9.00;;;8.40;99.90;;;;;;4993993;28;20475;-68
2021/11/07 07:39:55;;;;;;;6.90;6.20;;;8.40;99.90;;;;;;4993975;28;20414;-68
2021/11/07 07:42:21;;;;;;;6.33;5.83;;;8.40;99.90;;;;;;4993928;28;20225;-68
2021/11/07 07:44:50;;;;;;;8.47;6.10;;;8.30;99.90;;;;;;4990952;28;20205;-68
2021/11/07 07:47:16;;;;;;;6.27;5.70;;;8.40;99.90;;;;;;4993205;28;20813;-68
2021/11/07 07:49:42;;;;;;;6.43;5.83;;;8.40;99.90;;;;;;4993669;28;20408;-68
2021/11/07 07:52:07;;;;;;;6.07;5.57;;;8.30;99.90;;;;;;4993742;28;20173;-68
2021/11/07 07:54:33;;;;;;;7.27;5.30;;;8.40;99.90;;;;;;4993250;28;20206;-68
2021/11/07 07:57:00;;;;;;;5.27;4.87;;;8.40;99.90;;;;;;4993606;28;20249;-68
2021/11/07 07:59:25;;;;;;;5.70;5.20;;;8.50;99.90;;;;;;4993596;28;20421;-68
2021/11/07 08:01:52;;;;;;;5.97;5.47;;;8.40;99.90;;;;;;4993570;28;20412;-68
2021/11/07 08:04:18;;;;;;;5.93;5.00;;;8.40;99.90;;;;;;4992977;28;20243;-68
2021/11/07 08:06:44;;;;;;;4.80;4.50;;;8.40;99.90;;;;;;4993512;28;20548;-68
2021/11/07 08:09:09;;;;;;;5.20;4.80;;;8.40;99.90;;;;;;4993382;28;20432;-68
2021/11/07 08:11:35;;;;;;;6.00;5.50;;;8.40;99.90;;;;;;4993392;28;20170;-68
2021/11/07 08:14:01;;;;;;;5.93;5.40;;;8.50;99.90;;;;;;4992806;28;20217;-68
2021/11/07 08:16:28;;;;;;;6.60;4.90;;;8.50;99.90;;;;;;4993248;28;20627;-67
2021/11/07 08:18:53;;;;;;;5.43;5.03;;;8.50;99.90;;;;;;4993100;28;20459;-68
2021/11/07 08:21:20;;;;;;;5.80;5.40;;;8.50;99.90;;;;;;4993173;28;20849;-68
2021/11/07 08:23:53;;;;;;;6.50;6.00;;;8.50;99.90;;;;;;4992795;28;20255;-68
2021/11/07 08:26:19;;;;;;;7.53;6.87;;;8.50;99.90;;;;;;4993112;28;20405;-68
2021/11/07 08:28:45;;;;;;;8.03;7.23;;;8.40;99.90;;;;;;4992989;28;20423;-68
2021/11/07 08:31:20;;;;;;;7.80;7.10;;;8.50;99.90;;;;;;4992957;28;20169;-67
2021/11/07 08:33:46;;;;;;;6.90;6.30;;;8.50;99.90;;;;;;4992652;28;20844;-68
2021/11/07 08:36:17;;;;;;;9.50;7.73;;;8.50;99.90;;;;;;4992973;28;20416;-68
2021/11/07 08:38:51;;;;;;;7.23;6.53;;;8.60;99.90;;;;;;4992921;28;20642;-68
2021/11/07 08:41:18;;;;;;;7.03;6.43;;;8.60;99.90;;;;;;4992939;28;20404;-67
2021/11/07 09:00:24;;;;;;;9.13;8.10;;;8.70;99.90;;;;;;4992642;28;20463;-69
2021/11/07 09:02:57;;;;;;;7.80;6.50;;;8.70;99.90;;;;;;4992436;28;20890;-68
2021/11/07 09:10:35;;;;;;;8.00;7.27;;;8.70;99.90;;;;;;4992541;28;20415;-68
2021/11/07 09:13:04;;;;;;;7.33;6.70;;;8.80;99.90;;;;;;4992275;28;20424;-68
2021/11/07 09:15:32;;;;;;;7.60;6.90;;;8.80;99.90;;;;;;4992278;28;20456;-68
2021/11/07 09:17:59;;;;;;;6.70;6.17;;;8.80;99.90;;;;;;4992451;28;20409;-69
2021/11/07 09:20:44;;;;;;;7.67;6.07;;;8.80;99.90;;;;;;4992392;28;20412;-69
2021/11/07 09:25:57;;;;;;;7.27;6.60;;;8.90;99.90;;;;;;4992649;28;20483;-68
2021/11/07 09:28:31;;;;;;;8.50;6.83;;;8.90;99.90;;;;;;4992487;28;20409;-69
2021/11/07 09:31:16;;;;;;;9.07;8.13;;;8.90;99.90;;;;;;4992250;28;20424;-68
2021/11/07 09:34:05;;;;;;;13.67;10.70;;;8.90;99.90;;;;;;4991896;28;20756;-68
2021/11/07 09:36:39;;;;;;;8.33;7.47;;;8.90;99.90;;;;;;4992349;28;20834;-70
2021/11/07 09:39:17;;;;;;;10.33;8.93;;;8.90;99.90;;;;;;4992384;28;20408;-68
2021/11/07 09:44:14;;;;;;;9.30;7.40;;;8.90;99.90;;;;;;4991759;28;20790;-68
2021/11/07 09:46:44;;;;;;;10.57;6.70;;;8.90;99.90;;;;;;4992264;28;20921;-68
2021/11/07 09:49:47;;;;;;;9.57;7.50;;;8.90;99.90;;;;;;4992180;28;20440;-69
2021/11/07 09:52:17;;;;;;;8.93;6.87;;;9.00;99.90;;;;;;4991874;28;20512;-69
2021/11/07 09:54:46;;;;;;;8.67;6.80;;;9.00;99.90;;;;;;4991752;28;20798;-68
2021/11/07 09:57:16;;;;;;;10.27;7.13;;;9.10;99.90;;;;;;4992159;28;20501;-69
2021/11/07 09:59:41;;;;;;;8.07;7.20;;;9.00;99.90;;;;;;4992056;28;20401;-68
2021/11/07 10:02:07;;;;;;;8.47;7.80;;;9.00;99.90;;;;;;4992170;28;20401;-68
2021/11/07 10:04:36;;;;;;;12.00;7.13;;;8.90;99.90;;;;;;4991761;28;20444;-69
2021/11/07 10:07:13;;;;;;;9.93;7.03;;;8.90;99.90;;;;;;4991990;28;20210;-69
2021/11/07 10:09:41;;;;;;;7.17;6.40;;;9.00;99.90;;;;;;4995633;28;20436;-68
2021/11/07 10:12:10;;;;;;;10.73;9.53;;;9.00;99.90;;;;;;4995686;28;20469;-69
2021/11/07 10:14:48;;;;;;;11.00;9.30;;;9.20;99.90;;;;;;4995073;28;20460;-68
2021/11/07 10:17:38;;;;;;;13.30;9.97;;;9.30;99.90;;;;;;4995586;28;20409;-69
2021/11/07 10:20:29;;;;;;;11.47;8.33;;;9.40;99.90;;;;;;4995484;28;20496;-69
2021/11/07 10:23:25;;;;;;;9.27;7.83;;;9.40;99.90;;;;;;4995157;28;20413;-69
2021/11/07 10:28:37;;;;;;;9.47;8.20;;;9.50;99.90;;;;;;4995482;28;21002;-69
2021/11/07 10:31:24;;;;;;;8.13;7.33;;;9.50;99.90;;;;;;4995330;28;20503;-69
2021/11/07 10:44:41;;;;;;;7.13;5.97;;;9.50;99.90;;;;;;4994533;28;20425;-69
2021/11/07 10:53:03;;;;;;;10.20;5.27;;;9.60;99.90;;;;;;4994779;28;20440;-69
2021/11/07 10:55:32;;;;;;;7.53;4.17;;;9.60;99.90;;;;;;4994723;28;20460;-69
2021/11/07 10:58:00;;;;;;;7.93;4.93;;;9.30;99.90;;;;;;4994864;28;20409;-69
2021/11/07 11:00:29;;;;;;;7.00;5.87;;;9.50;99.90;;;;;;4994681;28;20414;-69
2021/11/07 11:03:03;;;;;;;9.27;5.60;;;9.50;99.90;;;;;;4994499;28;20412;-69
2021/11/07 11:05:55;;;;;;;7.20;5.00;;;9.60;99.90;;;;;;4994531;28;20967;-69
2021/11/07 11:08:32;;;;;;;9.97;5.40;;;9.70;99.90;;;;;;4991707;28;20432;-69
2021/11/07 11:11:12;;;;;;;12.40;5.27;;;9.90;99.90;;;;;;4994531;28;20420;-68
2021/11/07 11:13:52;;;;;;;6.53;4.80;;;10.00;99.90;;;;;;4994170;28;20407;-69
2021/11/07 11:19:22;;;;;;;10.37;5.10;;;10.10;99.90;;;;;;4994559;28;20409;-69
2021/11/07 11:32:20;;;;;;;6.97;4.30;;;10.00;99.90;;;;;;4994184;28;20983;-69
2021/11/07 11:35:01;;;;;;;7.63;4.37;;;10.00;99.90;;;;;;4993638;28;20449;-69
2021/11/07 11:42:33;;;;;;;8.90;4.77;;;10.00;99.90;;;;;;4994019;28;20448;-69
2021/11/07 11:44:59;;;;;;;12.93;4.97;;;10.00;99.90;;;;;;4993734;28;20432;-69
2021/11/07 11:47:42;;;;;;;9.90;4.97;;;10.00;99.90;;;;;;4994024;28;21029;-69
2021/11/07 12:08:06;;;;;;;6.70;3.40;;;9.70;99.90;;;;;;4993659;28;20941;-70
2021/11/07 12:10:37;;;;;;;9.90;4.10;;;9.70;99.90;;;;;;4993427;28;20512;-69
2021/11/07 12:16:27;;;;;;;9.53;3.67;;;10.00;99.90;;;;;;4993382;28;20449;-69
2021/11/07 12:19:06;;;;;;;7.87;4.57;;;10.20;99.90;;;;;;4993358;28;20920;-69
2021/11/07 12:21:49;;;;;;;8.57;4.43;;;10.80;99.90;;;;;;4993530;28;20524;-69
2021/11/07 12:24:19;;;;;;;5.00;2.63;;;11.90;99.90;;;;;;4992953;28;20433;-69
2021/11/07 12:26:45;;;;;;;11.03;3.27;;;12.80;99.90;;;;;;4993101;28;20946;-69
2021/11/07 12:29:12;;;;;;;7.40;3.30;;;13.20;99.20;;;;;;4993058;28;20912;-69
2021/11/07 12:32:02;;;;;;;9.00;4.83;;;13.90;97.90;;;;;;4992774;28;20968;-69
2021/11/07 12:34:50;;;;;;;12.83;3.43;;;14.30;96.00;;;;;;4992777;28;20467;-69
2021/11/07 12:43:05;;;;;;;6.67;3.00;;;15.40;93.70;;;;;;4992726;28;20416;-70
2021/11/07 12:45:39;;;;;;;6.57;3.00;;;15.50;92.40;;;;;;4992800;28;20441;-70
2021/11/07 12:48:10;;;;;;;8.90;3.30;;;15.20;91.00;;;;;;4993042;28;20411;-70
2021/11/07 12:50:52;;;;;;;8.40;3.00;;;15.40;91.60;;;;;;4992971;28;20401;-69
2021/11/07 12:53:18;;;;;;;6.27;2.97;;;16.00;91.40;;;;;;4992575;28;20455;-69
2021/11/07 12:55:44;;;;;;;7.27;2.53;;;16.00;90.20;;;;;;4992724;28;20456;-70
2021/11/07 12:58:09;;;;;;;12.37;3.40;;;15.90;90.10;;;;;;4992880;28;20204;-70
2021/11/07 13:00:36;;;;;;;12.47;4.37;;;16.00;87.60;;;;;;4992829;28;20499;-70
2021/11/07 13:03:10;;;;;;;11.30;3.70;;;16.40;90.80;;;;;;4992618;28;20534;-70
2021/11/07 13:05:39;;;;;;;5.60;2.80;;;16.50;90.60;;;;;;4992619;28;20502;-70
2021/11/07 13:08:08;;;;;;;5.70;3.07;;;16.20;87.90;;;;;;4992795;28;20467;-70
2021/11/07 13:11:00;;;;;;;3.90;2.43;;;16.10;87.50;;;;;;4992593;28;20483;-70
2021/11/07 13:32:29;;;;;;;5.50;3.10;;;13.50;92.20;;;;;;4990756;28;20476;-70
2021/11/07 13:35:04;;;;;;;6.70;3.60;;;13.20;92.40;;;;;;4989730;28;20456;-71
2021/11/07 13:37:44;;;;;;;7.00;4.27;;;13.10;93.40;;;;;;4992328;28;20413;-70
2021/11/07 13:40:15;;;;;;;6.67;3.30;;;13.00;92.90;;;;;;4992198;28;20401;-70
2021/11/07 13:42:43;;;;;;;17.40;3.17;;;12.80;92.20;;;;;;4993035;28;20868;-70
2021/11/07 13:45:17;;;;;;;4.43;3.90;;;12.50;91.70;;;;;;4995815;28;20473;-70
2021/11/07 13:47:44;;;;;;;9.73;2.73;;;12.40;92.80;;;;;;4996262;28;20407;-70
2021/11/07 13:50:18;;;;;;;5.67;3.07;;;12.30;93.80;;;;;;4995864;28;20448;-70
2021/11/07 13:52:44;;;;;;;4.30;2.80;;;12.30;93.60;;;;;;4995912;28;20419;-70
2021/11/07 13:55:23;;;;;;;7.30;3.57;;;12.10;93.60;;;;;;4995946;28;20885;-70
2021/11/07 13:57:49;;;;;;;7.17;3.43;;;11.80;94.50;;;;;;4996097;28;20913;-70
2021/11/07 14:00:20;;;;;;;9.00;2.50;;;12.00;95.40;;;;;;4995735;28;20440;-70
2021/11/07 14:02:57;;;;;;;2.73;2.43;;;11.90;94.70;;;;;;4995770;28;20237;-70
2021/11/07 14:05:23;;;;;;;5.20;2.60;;;11.90;94.60;;;;;;4995806;28;20928;-70
2021/11/07 14:07:58;;;;;;;6.03;2.87;;;11.90;94.20;;;;;;4995872;28;20416;-70
2021/11/07 14:10:29;;;;;;;8.70;3.67;;;11.70;94.40;;;;;;4995793;28;20412;-70
2021/11/07 14:12:56;;;;;;;7.63;2.43;;;11.80;95.20;;;;;;4995414;28;20405;-70
2021/11/07 14:15:34;;;;;;;7.37;2.70;;;11.90;95.10;;;;;;4995504;28;20460;-70
2021/11/07 14:18:28;;;;;;;6.63;5.47;;;11.90;94.70;;;;;;4995763;28;20416;-70
2021/11/07 14:20:55;;;;;;;13.83;3.10;;;11.80;94.90;;;;;;4994976;28;21006;-70
2021/11/07 14:23:29;;;;;;;12.03;3.30;;;11.70;95.10;;;;;;4995169;28;20865;-71
2021/11/07 14:26:04;;;;;;;6.47;2.50;;;11.60;94.50;;;;;;4995574;28;20417;-71
2021/11/07 14:28:36;;;;;;;9.93;2.70;;;11.40;94.90;;;;;;4995562;28;20415;-70
2021/11/07 14:31:11;;;;;;;5.30;3.13;;;11.40;95.40;;;;;;4995429;28;20468;-70
2021/11/07 14:33:45;;;;;;;6.87;3.30;;;11.30;95.40;;;;;;4994988;28;20463;-70
2021/11/07 14:39:08;;;;;;;7.77;2.80;;;11.10;95.10;;;;;;5003008;28;20456;-70
2021/11/07 14:41:42;;;;;;;6.37;3.47;;;11.00;95.90;;;;;;4995329;28;20400;-70
2021/11/07 14:44:18;;;;;;;9.40;2.43;;;11.00;95.20;;;;;;4995409;28;20433;-69
2021/11/07 14:46:52;;;;;;;5.07;2.90;;;10.80;95.10;;;;;;4993867;28;20484;-69
2021/11/07 14:52:27;;;;;;;3.77;3.20;;;10.70;95.80;;;;;;4995152;28;20493;-70
2021/11/07 14:55:04;;;;;;;4.80;3.30;;;10.50;96.00;;;;;;4994161;28;20968;-69
2021/11/07 15:00:04;;;;;;;14.37;3.03;;;10.30;96.60;;;;;;4995028;28;20921;-69
2021/11/07 15:02:50;;;;;;;15.77;2.67;;;10.30;97.40;;;;;;4994846;28;20585;-69
2021/11/07 15:05:34;;;;;;;4.83;3.10;;;10.30;97.20;;;;;;4994630;28;20452;-69
2021/11/07 15:08:35;;;;;;;8.03;2.63;;;10.10;97.20;;;;;;4993464;28;20421;-69
2021/11/07 15:13:56;;;;;;;7.63;3.43;;;9.80;98.30;;;;;;4994424;28;20952;-69
2021/11/07 15:19:21;;;;;;;11.17;2.93;;;9.80;99.00;;;;;;4994476;28;20408;-69
2021/11/07 15:21:52;;;;;;;4.97;2.53;;;9.70;99.00;;;;;;4994445;28;20776;-68
2021/11/07 15:24:40;;;;;;;6.30;2.50;;;9.70;99.60;;;;;;4989342;22;20485;-70
2021/11/07 15:27:11;;;;;;;6.37;2.17;;;9.70;99.80;;;;;;4955695;28;20490;-69
2021/11/07 15:30:03;;;;;;;7.03;2.37;;;9.70;99.60;;;;;;4955498;28;20903;-69
2021/11/07 15:32:37;;;;;;;2.60;2.23;;;9.60;99.70;;;;;;4955527;28;20399;-69
2021/11/07 15:35:16;;;;;;;9.93;4.87;;;9.60;99.70;;;;;;4994570;23;20623;-69
2021/11/07 15:37:42;;;;;;;6.87;2.93;;;9.60;99.60;;;;;;4994108;28;20407;-69
2021/11/07 15:40:08;;;;;;;11.80;5.37;;;9.50;99.70;;;;;;4994014;28;20397;-69
2021/11/07 15:42:37;;;;;;;9.33;2.80;;;9.40;99.90;;;;;;4993956;28;20185;-69
2021/11/07 15:45:10;;;;;;;6.67;2.60;;;9.40;99.90;;;;;;4993645;28;20433;-69
2021/11/07 15:47:41;;;;;;;7.77;2.50;;;9.40;99.90;;;;;;4993961;28;20401;-69
2021/11/07 15:50:17;;;;;;;11.97;3.40;;;9.40;99.90;;;;;;4993938;28;20771;-69